LFTW/FNI METAR and TAF weather

Enter ICAO airport designator
Station Type Date Time Source
LFTW METAR 2019/12/07 00:00 UTC NOAA

LFTW 070000Z AUTO 05002KT 7000 NSC 03/02 Q1022


Station Type Date Time Source
LFTW Decoded METAR 2019/12/07 00:00 UTC NOAA

Nimes / Garons, France (LFTW) 43-45N 004-25E 96M
Dec 06, 2019 - 07:00 PM EST / 2019.12.07 0000 UTC
Wind: from the NE (050 degrees) at 2 MPH (2 KT):0
Visibility: 4 mile(s):0
Temperature: 37 F (3 C)
Dew Point: 35 F (2 C)
Relative Humidity: 93%
Pressure (altimeter): 30.18 in. Hg (1022 hPa)
ob: LFTW 070000Z AUTO 05002KT 7000 NSC 03/02 Q1022
cycle: 0

Station Type Date Time Source
LFTW TAF 2019/12/06 19:59 UTC NOAA

TAF LFTW 061955Z 0619/0715 CNL

Example: see airport list